Time;durP1;ratioP1;P1;durP2;ratioP2;P2;SDS_P1;SDS_P2;PMS_P1;PMS_P2;Temp;Humidity;BMP_temperature;BMP_pressure;BME280_temperature;BME280_humidity;BME280_pressure;Samples;Min_cycle;Max_cycle;Signal;HPM_P1;HPM_P2
2023/03/30 00:01:10;;;;;;;1.17;1.07;;;;;;;11.24;100.00;99690.59;5008521;28;20456;-52
2023/03/30 00:03:37;;;;;;;7.27;1.20;;;;;;;11.28;100.00;99698.38;5016244;28;20472;-53
2023/03/30 00:06:06;;;;;;;1.10;1.00;;;;;;;11.29;100.00;99696.59;5021690;28;20480;-52
2023/03/30 00:08:32;;;;;;;1.40;1.30;;;;;;;11.20;100.00;99695.16;5024261;28;20456;-51
2023/03/30 00:11:04;;;;;;;1.23;1.17;;;;;;;11.19;100.00;99695.22;5021108;28;20456;-53
2023/03/30 00:13:33;;;;;;;1.40;1.30;;;;;;;11.12;100.00;99696.41;5017455;28;20529;-53
2023/03/30 00:15:59;;;;;;;2.93;1.37;;;;;;;11.05;100.00;99689.59;5020325;28;20500;-52
2023/03/30 00:18:28;;;;;;;1.03;1.00;;;;;;;10.92;100.00;99682.09;5024421;28;20833;-51
2023/03/30 00:20:57;;;;;;;3.50;1.83;;;;;;;10.65;100.00;99681.41;5022234;28;20936;-51
2023/03/30 00:23:23;;;;;;;0.80;0.60;;;;;;;10.64;100.00;99689.44;5017156;28;20486;-53
2023/03/30 00:25:50;;;;;;;1.43;1.17;;;;;;;10.62;100.00;99676.19;5017491;28;20488;-53
2023/03/30 00:28:16;;;;;;;0.97;0.90;;;;;;;10.46;100.00;99677.72;5023992;28;20818;-53
2023/03/30 00:30:42;;;;;;;3.23;1.00;;;;;;;10.19;100.00;99678.72;5027857;28;20838;-52
2023/03/30 00:33:09;;;;;;;2.20;1.40;;;;;;;10.25;100.00;99665.22;5016923;28;20472;-53
2023/03/30 00:35:36;;;;;;;3.90;1.13;;;;;;;10.15;100.00;99669.16;5018041;28;20546;-53
2023/03/30 00:38:02;;;;;;;3.33;1.00;;;;;;;10.26;100.00;99678.44;5023406;28;20894;-52
2023/03/30 00:40:31;;;;;;;0.80;0.63;;;;;;;10.29;100.00;99681.03;5022731;28;20826;-53
2023/03/30 00:43:00;;;;;;;1.57;1.07;;;;;;;10.48;100.00;99686.50;5016624;28;20547;-53
2023/03/30 00:45:29;;;;;;;1.00;0.80;;;;;;;10.47;100.00;99694.53;5016930;28;20527;-52
2023/03/30 00:48:05;;;;;;;3.80;1.47;;;;;;;10.65;100.00;99692.03;5023198;28;20934;-52
2023/03/30 00:50:43;;;;;;;1.53;1.43;;;;;;;10.54;100.00;99688.03;5023447;28;21010;-53
2023/03/30 00:53:41;;;;;;;0.93;0.80;;;;;;;10.60;100.00;99693.13;5002836;28;20476;-50
2023/03/30 00:56:11;;;;;;;2.80;1.13;;;;;;;10.57;100.00;99695.91;5004471;28;20549;-52
2023/03/30 00:58:40;;;;;;;3.13;1.00;;;;;;;10.56;100.00;99687.09;5016547;28;20480;-53
2023/03/30 01:01:09;;;;;;;1.10;1.03;;;;;;;10.65;100.00;99700.00;5007575;28;20921;-52
2023/03/30 01:03:46;;;;;;;2.63;2.03;;;;;;;10.71;100.00;99696.25;5016606;28;20476;-52
2023/03/30 01:06:23;;;;;;;1.27;1.17;;;;;;;10.52;100.00;99687.25;5019575;28;20448;-53
2023/03/30 01:08:51;;;;;;;1.37;1.27;;;;;;;10.69;100.00;99692.81;5023814;28;20470;-53
2023/03/30 01:11:18;;;;;;;0.80;0.73;;;;;;;10.57;100.00;99694.13;5021943;28;20899;-52
2023/03/30 01:13:48;;;;;;;1.97;1.87;;;;;;;10.58;100.00;99689.69;5015905;28;20805;-52
2023/03/30 01:16:26;;;;;;;0.90;0.60;;;;;;;10.51;100.00;99696.13;5016948;28;20587;-53
2023/03/30 01:19:00;;;;;;;0.93;0.77;;;;;;;10.68;100.00;99699.88;5005690;28;20452;-52
2023/03/30 01:21:39;;;;;;;4.53;0.70;;;;;;;10.78;100.00;99688.91;5016325;28;20456;-54
2023/03/30 01:24:30;;;;;;;1.93;0.80;;;;;;;10.47;100.00;99686.56;5018840;28;20469;-52
2023/03/30 01:27:01;;;;;;;10.03;2.50;;;;;;;10.40;100.00;99683.25;5004501;28;20860;-52
2023/03/30 01:29:42;;;;;;;0.50;0.50;;;;;;;10.47;100.00;99686.56;5021560;28;20458;-52
2023/03/30 01:32:18;;;;;;;13.13;1.23;;;;;;;10.70;100.00;99696.31;5019237;28;20457;-52
2023/03/30 01:35:06;;;;;;;0.77;0.60;;;;;;;10.73;100.00;99691.75;5022680;28;20479;-52
2023/03/30 01:37:48;;;;;;;0.83;0.70;;;;;;;10.77;100.00;99695.13;5022701;28;20535;-53
2023/03/30 01:40:18;;;;;;;1.47;1.37;;;;;;;10.87;100.00;99692.06;5019778;28;20793;-54
2023/03/30 01:43:07;;;;;;;1.20;1.17;;;;;;;10.85;100.00;99691.28;5015596;28;20454;-52
2023/03/30 01:45:56;;;;;;;1.87;1.70;;;;;;;10.93;100.00;99685.63;5015649;28;20456;-52
2023/03/30 01:48:44;;;;;;;3.73;1.73;;;;;;;11.00;100.00;99704.88;5018217;28;20876;-54
2023/03/30 01:51:22;;;;;;;4.97;1.27;;;;;;;11.26;100.00;99699.38;5002562;28;20542;-54
2023/03/30 01:53:55;;;;;;;1.50;1.30;;;;;;;11.24;100.00;99702.13;5021587;28;20566;-53
2023/03/30 01:57:04;;;;;;;1.13;1.03;;;;;;;10.99;100.00;99701.38;5019127;28;20549;-52
2023/03/30 01:59:55;;;;;;;7.07;1.43;;;;;;;10.69;100.00;99687.47;5016435;28;20475;-52
2023/03/30 02:02:26;;;;;;;1.27;1.17;;;;;;;10.84;100.00;99705.50;5022879;28;20453;-53
2023/03/30 02:04:56;;;;;;;1.00;1.00;;;;;;;10.86;100.00;99703.63;5022343;28;20471;-53
2023/03/30 02:07:28;;;;;;;1.23;1.13;;;;;;;10.98;100.00;99681.00;5016891;28;20459;-52
2023/03/30 02:10:01;;;;;;;4.23;0.90;;;;;;;11.00;100.00;99697.78;5015299;28;20453;-52
2023/03/30 02:12:29;;;;;;;9.80;1.27;;;;;;;11.01;100.00;99702.16;5020226;28;20464;-52
2023/03/30 02:15:03;;;;;;;0.90;0.90;;;;;;;10.81;100.00;99679.00;5021903;28;20921;-53
2023/03/30 02:17:30;;;;;;;6.17;1.23;;;;;;;10.86;100.00;99669.06;5019298;28;20510;-52
2023/03/30 02:19:58;;;;;;;6.00;1.60;;;;;;;10.95;100.00;99666.03;5024804;28;20452;-52
2023/03/30 02:22:26;;;;;;;2.00;0.90;;;;;;;10.93;100.00;99667.00;5019670;28;20509;-52
2023/03/30 02:24:54;;;;;;;20.77;1.30;;;;;;;10.88;100.00;99667.22;5015800;28;20486;-53
2023/03/30 02:27:22;;;;;;;1.47;1.37;;;;;;;10.98;100.00;99670.38;5017158;28;20976;-52
2023/03/30 02:29:48;;;;;;;2.40;1.23;;;;;;;10.93;100.00;99659.91;5022896;28;20456;-52
2023/03/30 02:32:20;;;;;;;0.93;0.90;;;;;;;11.00;100.00;99684.47;5016841;28;20531;-52
2023/03/30 02:34:50;;;;;;;1.37;1.27;;;;;;;10.97;100.00;99701.44;5022043;28;20822;-54
2023/03/30 02:38:02;;;;;;;1.33;0.60;;;;;;;11.02;100.00;99705.69;5022123;28;20847;-52
2023/03/30 02:40:44;;;;;;;1.03;0.90;;;;;;;11.35;100.00;99711.44;5015054;28;20832;-53
2023/03/30 02:43:20;;;;;;;3.20;0.97;;;;;;;11.34;100.00;99712.34;5005902;28;20852;-54
2023/03/30 02:45:56;;;;;;;2.00;1.80;;;;;;;11.26;100.00;99713.56;5015749;28;20439;-52
2023/03/30 02:48:31;;;;;;;1.80;1.70;;;;;;;11.12;100.00;99715.03;5017576;28;20895;-53
2023/03/30 02:51:21;;;;;;;2.30;1.90;;;;;;;11.06;100.00;99721.44;5021978;28;20455;-53
2023/03/30 02:54:00;;;;;;;11.83;1.63;;;;;;;10.98;100.00;99721.78;5017882;28;20468;-52
2023/03/30 02:56:36;;;;;;;1.60;1.50;;;;;;;10.88;100.00;99727.50;5019340;28;21415;-52
2023/03/30 02:59:09;;;;;;;7.33;1.47;;;;;;;10.63;100.00;99720.47;5011817;28;20444;-52
2023/03/30 03:01:41;;;;;;;1.80;1.57;;;;;;;10.72;100.00;99700.66;5021514;28;20941;-52
2023/03/30 03:04:10;;;;;;;0.83;0.73;;;;;;;10.57;100.00;99672.00;5003431;28;20494;-53
2023/03/30 03:06:37;;;;;;;8.13;1.17;;;;;;;10.84;100.00;99675.38;5017802;28;20455;-52
2023/03/30 03:09:04;;;;;;;1.70;1.00;;;;;;;11.06;100.00;99686.00;5024253;28;20456;-52
2023/03/30 03:11:31;;;;;;;1.83;0.67;;;;;;;11.06;100.00;99691.31;5025684;28;20455;-53
2023/03/30 03:13:58;;;;;;;12.93;1.53;;;;;;;11.37;100.00;99696.25;5020429;28;20487;-52
2023/03/30 03:16:24;;;;;;;0.93;0.93;;;;;;;11.50;100.00;99689.50;5018182;28;20836;-52
2023/03/30 03:18:51;;;;;;;6.70;2.00;;;;;;;11.63;100.00;99663.22;5023842;28;20463;-52
2023/03/30 03:21:17;;;;;;;0.70;0.60;;;;;;;11.58;100.00;99647.47;5025221;28;20479;-53
2023/03/30 03:23:47;;;;;;;2.30;1.20;;;;;;;11.33;100.00;99631.66;5020141;28;20471;-52
2023/03/30 03:26:13;;;;;;;2.67;1.33;;;;;;;11.22;100.00;99631.25;5018723;28;20457;-52
2023/03/30 03:28:40;;;;;;;1.40;1.30;;;;;;;11.42;100.00;99610.00;5023328;28;20455;-52
2023/03/30 03:31:06;;;;;;;0.67;0.40;;;;;;;11.60;100.00;99594.16;5029481;28;20547;-53
2023/03/30 03:33:33;;;;;;;1.00;1.00;;;;;;;11.55;100.00;99575.72;5020658;28;20534;-53
2023/03/30 03:36:00;;;;;;;1.87;1.77;;;;;;;11.65;100.00;99560.19;5018331;28;20496;-52
2023/03/30 03:38:26;;;;;;;2.30;0.80;;;;;;;11.80;100.00;99552.44;5022451;28;20546;-52
2023/03/30 03:40:56;;;;;;;0.60;0.60;;;;;;;11.79;100.00;99542.72;5024795;28;20975;-53
2023/03/30 03:43:23;;;;;;;1.30;0.93;;;;;;;11.75;100.00;99538.41;5021476;28;20472;-53
2023/03/30 03:45:51;;;;;;;3.43;2.63;;;;;;;11.81;100.00;99526.69;5027730;28;20461;-52
2023/03/30 03:48:19;;;;;;;0.50;0.50;;;;;;;11.97;100.00;99518.84;5022125;28;20451;-53
2023/03/30 03:50:49;;;;;;;1.40;1.00;;;;;;;12.01;100.00;99515.09;5017731;28;20880;-53
2023/03/30 03:53:16;;;;;;;3.83;2.30;;;;;;;11.90;99.84;99520.03;5023239;28;20476;-54
2023/03/30 03:55:43;;;;;;;10.87;4.83;;;;;;;11.95;99.76;99526.03;5017733;28;20491;-52
2023/03/30 03:58:09;;;;;;;3.60;3.27;;;;;;;11.81;100.00;99522.22;5019795;28;20453;-52
2023/03/30 04:00:36;;;;;;;6.30;3.07;;;;;;;11.73;100.00;99523.47;5017715;28;20455;-53
2023/03/30 04:03:03;;;;;;;5.40;3.40;;;;;;;11.58;100.00;99522.34;5019683;28;20468;-52
2023/03/30 04:05:30;;;;;;;11.73;6.37;;;;;;;11.56;100.00;99526.88;5024358;28;20831;-52
2023/03/30 04:07:57;;;;;;;5.00;3.20;;;;;;;11.65;100.00;99534.47;5022556;28;20455;-52
2023/03/30 04:10:23;;;;;;;2.83;2.63;;;;;;;11.83;100.00;99548.78;5017510;28;20456;-52
2023/03/30 04:12:50;;;;;;;2.87;2.67;;;;;;;11.77;100.00;99554.31;5018769;28;20452;-53
2023/03/30 04:15:16;;;;;;;4.63;2.57;;;;;;;11.65;100.00;99553.09;5024190;28;20464;-52
2023/03/30 04:17:43;;;;;;;2.97;2.00;;;;;;;11.65;100.00;99558.44;5021890;28;20515;-54
2023/03/30 04:20:12;;;;;;;5.93;2.30;;;;;;;11.65;100.00;99546.88;5017415;28;20982;-51
2023/03/30 04:22:42;;;;;;;9.53;3.07;;;;;;;11.52;100.00;99543.94;5018200;28;21001;-50
2023/03/30 04:25:10;;;;;;;20.23;3.90;;;;;;;11.61;100.00;99556.81;5023952;28;21012;-50
2023/03/30 04:27:37;;;;;;;15.93;1.63;;;;;;;11.91;100.00;99573.22;5023579;28;20538;-51
2023/03/30 04:30:04;;;;;;;1.70;1.60;;;;;;;11.82;100.00;99563.03;5022367;28;20456;-51
2023/03/30 04:32:33;;;;;;;1.77;1.67;;;;;;;12.02;99.90;99570.94;5016970;28;20780;-50
2023/03/30 04:35:00;;;;;;;1.67;1.57;;;;;;;11.81;100.00;99570.16;5023147;28;20476;-50
2023/03/30 04:37:29;;;;;;;9.20;1.83;;;;;;;11.75;100.00;99581.03;5023428;28;20491;-50
2023/03/30 04:39:57;;;;;;;2.03;1.93;;;;;;;11.83;100.00;99575.41;5017932;28;20452;-52
2023/03/30 04:42:33;;;;;;;7.70;2.80;;;;;;;11.81;100.00;99588.78;5016807;28;20539;-50
2023/03/30 04:44:59;;;;;;;8.10;3.30;;;;;;;11.84;100.00;99571.81;5020473;28;20522;-51
2023/03/30 04:47:27;;;;;;;2.00;1.90;;;;;;;11.47;100.00;99570.72;5023312;28;20452;-51
2023/03/30 04:49:54;;;;;;;5.17;2.20;;;;;;;11.46;100.00;99553.03;5020516;28;20917;-50
2023/03/30 04:52:21;;;;;;;1.23;1.13;;;;;;;11.41;100.00;99538.22;5005466;28;20467;-51
2023/03/30 04:54:47;;;;;;;2.93;2.10;;;;;;;11.42;100.00;99522.19;5020736;28;20529;-51
2023/03/30 04:57:14;;;;;;;1.40;1.10;;;;;;;11.61;100.00;99518.69;5016742;28;20495;-50
2023/03/30 04:59:42;;;;;;;4.83;0.60;;;;;;;11.89;100.00;99529.84;5027821;28;20528;-52
2023/03/30 05:02:10;;;;;;;1.60;1.23;;;;;;;12.10;100.00;99526.19;5025438;28;21029;-51
2023/03/30 05:04:38;;;;;;;10.43;1.20;;;;;;;12.16;100.00;99541.88;5020709;28;20472;-51
2023/03/30 05:07:05;;;;;;;3.70;0.80;;;;;;;12.23;100.00;99560.25;5016497;28;20448;-51
2023/03/30 05:09:32;;;;;;;1.40;1.30;;;;;;;12.12;100.00;99561.59;5018479;28;20475;-52
2023/03/30 05:11:58;;;;;;;1.33;1.07;;;;;;;12.22;100.00;99574.50;5023168;28;20457;-51
2023/03/30 05:14:26;;;;;;;1.47;1.37;;;;;;;12.05;100.00;99581.47;5021460;28;20578;-54
2023/03/30 05:16:52;;;;;;;0.97;0.73;;;;;;;12.25;100.00;99580.56;5015879;28;20487;-54
2023/03/30 05:19:19;;;;;;;2.73;1.40;;;;;;;12.21;100.00;99592.31;5017564;28;20460;-54
2023/03/30 05:21:45;;;;;;;1.07;0.80;;;;;;;12.31;100.00;99593.56;5023058;28;20453;-54
2023/03/30 05:24:12;;;;;;;1.63;1.43;;;;;;;12.14;100.00;99585.50;5021245;28;20862;-53
2023/03/30 05:26:39;;;;;;;0.73;0.73;;;;;;;12.05;100.00;99578.78;5016291;28;20502;-54
2023/03/30 05:29:06;;;;;;;10.13;1.47;;;;;;;12.12;100.00;99576.72;5021088;28;21107;-54
2023/03/30 05:31:32;;;;;;;11.43;1.43;;;;;;;12.20;100.00;99573.69;5023975;28;20946;-54
2023/03/30 05:33:59;;;;;;;5.20;1.63;;;;;;;12.23;100.00;99578.91;5021224;28;20515;-54
2023/03/30 05:36:25;;;;;;;3.23;1.70;;;;;;;12.44;100.00;99565.41;5016226;28;20495;-55
2023/03/30 05:38:52;;;;;;;2.97;1.07;;;;;;;12.64;100.00;99567.13;5017377;28;20452;-55
2023/03/30 05:41:18;;;;;;;13.23;1.40;;;;;;;12.77;100.00;99575.41;5022935;28;20484;-55
2023/03/30 05:43:46;;;;;;;1.47;1.20;;;;;;;12.85;100.00;99572.34;5021903;28;20479;-55
2023/03/30 05:46:12;;;;;;;6.80;3.00;;;;;;;12.88;100.00;99581.03;5015953;28;20451;-55
2023/03/30 05:48:39;;;;;;;1.57;1.47;;;;;;;12.81;100.00;99581.44;5028944;28;20457;-55
2023/03/30 05:51:06;;;;;;;1.23;1.13;;;;;;;12.80;100.00;99572.56;5001893;28;20460;-55
2023/03/30 05:53:33;;;;;;;1.13;0.97;;;;;;;12.82;100.00;99585.81;5022604;28;20671;-55
2023/03/30 05:56:00;;;;;;;2.37;1.40;;;;;;;12.93;100.00;99594.16;5016003;28;20828;-55
2023/03/30 05:58:27;;;;;;;10.53;1.60;;;;;;;13.07;100.00;99613.03;5015539;28;20544;-55
2023/03/30 06:00:57;;;;;;;5.40;0.93;;;;;;;13.11;100.00;99603.91;5017276;28;20831;-55
2023/03/30 06:03:23;;;;;;;6.53;0.70;;;;;;;13.12;100.00;99597.63;5015803;28;20465;-56
2023/03/30 06:05:52;;;;;;;0.60;0.43;;;;;;;13.24;100.00;99598.88;5021690;28;20484;-55
2023/03/30 06:08:19;;;;;;;6.30;1.47;;;;;;;13.49;100.00;99598.47;5022589;28;20451;-54
2023/03/30 06:10:52;;;;;;;9.03;1.57;;;;;;;13.37;100.00;99575.94;5017594;28;20502;-55
2023/03/30 06:13:19;;;;;;;3.27;0.97;;;;;;;13.44;100.00;99582.72;5015432;28;20508;-55
2023/03/30 06:15:46;;;;;;;2.70;2.03;;;;;;;13.47;100.00;99609.25;5020050;28;20989;-54
2023/03/30 06:18:13;;;;;;;1.10;0.87;;;;;;;13.43;100.00;99610.34;5022694;28;20553;-55
2023/03/30 06:20:39;;;;;;;8.63;1.73;;;;;;;13.54;100.00;99596.44;5018430;28;20466;-55
2023/03/30 06:23:06;;;;;;;32.40;2.70;;;;;;;13.47;100.00;99581.69;5015561;28;20473;-55
2023/03/30 06:25:32;;;;;;;4.07;1.00;;;;;;;13.46;100.00;99575.47;5019585;28;20483;-54
2023/03/30 06:27:59;;;;;;;0.60;0.60;;;;;;;13.46;100.00;99582.63;5022319;28;20443;-55
2023/03/30 06:30:25;;;;;;;2.00;1.07;;;;;;;13.50;100.00;99578.84;5023551;28;20458;-54
2023/03/30 06:32:52;;;;;;;12.07;1.27;;;;;;;13.58;100.00;99576.66;5015403;28;20492;-55
2023/03/30 06:35:19;;;;;;;1.20;0.90;;;;;;;13.64;100.00;99577.19;5019657;28;20563;-55
2023/03/30 06:37:45;;;;;;;3.50;1.13;;;;;;;13.67;100.00;99576.16;5021946;28;20508;-55
2023/03/30 06:40:12;;;;;;;6.60;2.23;;;;;;;13.57;100.00;99570.44;5018814;28;20967;-54
2023/03/30 06:42:40;;;;;;;7.30;0.70;;;;;;;13.39;100.00;99560.69;5018752;28;20455;-54
2023/03/30 06:45:08;;;;;;;0.70;0.70;;;;;;;13.63;100.00;99546.06;5021649;28;20984;-54
2023/03/30 06:47:35;;;;;;;4.80;0.60;;;;;;;13.66;100.00;99547.72;5025988;28;20825;-55
2023/03/30 06:50:02;;;;;;;7.37;1.93;;;;;;;13.55;100.00;99547.41;5023737;28;20459;-54
2023/03/30 06:52:32;;;;;;;9.33;2.07;;;;;;;13.68;100.00;99523.59;5006804;28;20515;-55
2023/03/30 06:54:59;;;;;;;0.80;0.60;;;;;;;13.73;100.00;99521.56;5024270;28;20478;-55
2023/03/30 06:57:25;;;;;;;1.67;1.57;;;;;;;13.59;100.00;99531.16;5018466;28;20491;-55
2023/03/30 06:59:52;;;;;;;8.43;1.20;;;;;;;13.74;100.00;99517.94;5030361;28;20462;-54
2023/03/30 07:02:18;;;;;;;4.57;1.20;;;;;;;13.88;100.00;99515.38;5026566;28;20459;-55
2023/03/30 07:04:45;;;;;;;2.00;0.67;;;;;;;13.98;100.00;99515.72;5024369;28;21046;-55
2023/03/30 07:07:12;;;;;;;0.80;0.80;;;;;;;13.86;100.00;99518.13;5018744;28;20451;-55
2023/03/30 07:09:39;;;;;;;8.87;1.40;;;;;;;13.99;100.00;99486.28;5019454;28;20827;-54
2023/03/30 07:12:05;;;;;;;1.40;0.77;;;;;;;14.11;100.00;99466.00;5025278;28;20460;-55
2023/03/30 07:14:32;;;;;;;0.87;0.67;;;;;;;14.12;100.00;99484.63;5024699;28;20545;-55
2023/03/30 07:16:58;;;;;;;1.17;1.07;;;;;;;14.18;100.00;99534.19;5018874;28;20498;-55
2023/03/30 07:19:25;;;;;;;3.20;1.90;;;;;;;14.18;100.00;99558.25;5019070;28;20452;-55
2023/03/30 07:21:51;;;;;;;2.30;0.90;;;;;;;14.11;100.00;99543.50;5025254;28;20452;-55
2023/03/30 07:24:18;;;;;;;1.10;0.97;;;;;;;14.15;100.00;99556.63;5024963;28;20835;-54
2023/03/30 07:26:44;;;;;;;1.63;0.60;;;;;;;14.10;100.00;99553.31;5018661;28;20534;-55
2023/03/30 07:29:11;;;;;;;0.83;0.83;;;;;;;14.22;100.00;99551.78;5022886;28;20486;-55
2023/03/30 07:31:37;;;;;;;14.07;0.93;;;;;;;14.34;100.00;99560.94;5024654;28;20881;-55
2023/03/30 07:34:03;;;;;;;0.70;0.70;;;;;;;14.20;100.00;99553.69;5024820;28;20478;-55
2023/03/30 07:36:30;;;;;;;0.77;0.53;;;;;;;14.13;100.00;99533.59;5018660;28;20448;-55
2023/03/30 07:38:57;;;;;;;5.60;1.07;;;;;;;14.22;100.00;99533.06;5017951;28;20452;-56
2023/03/30 07:41:23;;;;;;;2.50;1.37;;;;;;;14.31;100.00;99521.88;5024456;28;20456;-55
2023/03/30 07:43:50;;;;;;;1.33;1.23;;;;;;;14.21;100.00;99518.00;5024889;28;20471;-55
2023/03/30 07:46:16;;;;;;;2.20;0.67;;;;;;;14.25;100.00;99524.88;5018341;28;20452;-54
2023/03/30 07:48:43;;;;;;;1.03;0.93;;;;;;;14.29;100.00;99550.50;5018358;28;20531;-55
2023/03/30 07:51:11;;;;;;;1.30;1.20;;;;;;;14.17;100.00;99559.22;5022548;28;20456;-54
2023/03/30 07:53:38;;;;;;;0.87;0.80;;;;;;;14.33;100.00;99564.56;5005505;28;20518;-55
2023/03/30 07:56:05;;;;;;;1.30;1.20;;;;;;;14.38;100.00;99566.03;5024244;28;20452;-55
2023/03/30 07:58:32;;;;;;;1.10;1.00;;;;;;;14.35;100.00;99565.34;5024486;28;20570;-55
2023/03/30 08:01:01;;;;;;;5.80;1.43;;;;;;;14.33;100.00;99562.75;5030638;28;20510;-55
2023/03/30 08:03:28;;;;;;;2.37;1.50;;;;;;;14.49;100.00;99557.44;5017542;28;20479;-55
2023/03/30 08:06:02;;;;;;;6.97;2.00;;;;;;;14.59;100.00;99560.47;5022695;28;20523;-55
2023/03/30 08:08:32;;;;;;;32.57;1.90;;;;;;;14.88;100.00;99556.97;5024516;28;20446;-55
2023/03/30 08:10:59;;;;;;;1.87;0.87;;;;;;;14.95;100.00;99569.06;5020961;28;20459;-55
2023/03/30 08:13:26;;;;;;;8.60;1.47;;;;;;;14.91;100.00;99575.53;5017264;28;20484;-55
2023/03/30 08:15:53;;;;;;;9.43;0.67;;;;;;;14.88;100.00;99583.75;5021093;28;20945;-55
2023/03/30 08:18:20;;;;;;;0.63;0.57;;;;;;;14.89;100.00;99581.91;5023913;28;20876;-54
2023/03/30 08:20:50;;;;;;;11.83;1.17;;;;;;;15.07;100.00;99586.19;5020929;28;20827;-55
2023/03/30 08:23:17;;;;;;;4.90;0.93;;;;;;;15.00;100.00;99585.72;5017419;28;20467;-55
2023/03/30 08:25:45;;;;;;;1.20;0.73;;;;;;;15.13;100.00;99585.00;5020177;28;20783;-55
2023/03/30 08:28:12;;;;;;;1.57;0.70;;;;;;;15.26;100.00;99586.88;5024313;28;20477;-54
2023/03/30 08:30:39;;;;;;;1.77;1.67;;;;;;;15.34;100.00;99584.56;5027225;28;20456;-55
2023/03/30 08:33:07;;;;;;;10.90;1.70;;;;;;;15.43;100.00;99590.34;5016839;28;20522;-55
2023/03/30 08:35:34;;;;;;;18.40;1.33;;;;;;;15.72;100.00;99600.19;5019115;28;20543;-56
2023/03/30 08:38:00;;;;;;;3.97;1.50;;;;;;;15.58;100.00;99613.53;5023653;28;20571;-55
2023/03/30 08:40:27;;;;;;;10.03;2.07;;;;;;;15.59;100.00;99608.13;5022190;28;20452;-55
2023/03/30 08:43:13;;;;;;;3.30;1.27;;;;;;;15.46;100.00;99615.13;5016713;28;20456;-55
2023/03/30 08:45:41;;;;;;;2.23;1.20;;;;;;;15.36;100.00;99600.59;5016705;28;20503;-54
2023/03/30 08:48:20;;;;;;;1.50;1.33;;;;;;;15.55;100.00;99592.28;5021381;28;20481;-55
2023/03/30 08:50:57;;;;;;;1.23;0.90;;;;;;;15.72;100.00;99591.31;5023792;28;20452;-55
2023/03/30 08:53:24;;;;;;;2.30;2.20;;;;;;;15.80;100.00;99589.03;5002747;28;20527;-55
2023/03/30 08:55:57;;;;;;;0.80;0.60;;;;;;;15.87;100.00;99587.69;5022146;28;20514;-55
2023/03/30 08:58:39;;;;;;;1.10;1.00;;;;;;;15.89;99.88;99585.75;5023557;28;20553;-55
2023/03/30 09:01:22;;;;;;;7.73;1.70;;;;;;;15.88;98.77;99579.53;5008195;28;20451;-55
2023/03/30 09:03:58;;;;;;;3.37;1.77;;;;;;;15.80;98.70;99578.31;5016127;28;20522;-55
2023/03/30 09:06:30;;;;;;;2.10;1.40;;;;;;;15.95;98.54;99578.22;5017452;28;20456;-55
2023/03/30 09:08:57;;;;;;;1.90;1.80;;;;;;;15.95;97.47;99588.06;5016991;28;20452;-55
2023/03/30 09:11:30;;;;;;;4.30;1.10;;;;;;;15.92;98.11;99588.28;5016774;28;20453;-55
2023/03/30 09:14:01;;;;;;;6.17;3.07;;;;;;;15.94;98.13;99592.56;5005784;28;20510;-55
2023/03/30 09:16:54;;;;;;;1.40;1.30;;;;;;;15.96;97.96;99595.16;5015988;28;20460;-55
2023/03/30 09:19:32;;;;;;;3.00;1.13;;;;;;;15.99;97.07;99601.19;5017621;28;20499;-55
2023/03/30 09:22:03;;;;;;;0.80;0.80;;;;;;;15.92;97.75;99604.34;5003907;28;20890;-55
2023/03/30 09:24:29;;;;;;;1.43;1.23;;;;;;;15.86;97.43;99612.75;5014556;28;21344;-55
2023/03/30 09:27:13;;;;;;;5.23;2.37;;;;;;;15.90;97.12;99615.19;5021760;28;20544;-55
2023/03/30 09:29:47;;;;;;;2.60;1.60;;;;;;;15.99;96.70;99611.91;5020559;28;20447;-55
2023/03/30 09:32:29;;;;;;;2.73;1.13;;;;;;;15.92;96.92;99609.72;5018136;28;20453;-56
2023/03/30 09:35:10;;;;;;;2.70;1.20;;;;;;;15.82;97.38;99617.44;5022543;28;20472;-55
2023/03/30 09:37:37;;;;;;;0.80;0.73;;;;;;;15.98;96.40;99620.06;5020928;28;20509;-54
2023/03/30 09:40:19;;;;;;;2.63;1.40;;;;;;;15.98;95.81;99612.88;5017074;28;20463;-55
2023/03/30 09:42:54;;;;;;;1.30;1.20;;;;;;;16.00;94.25;99612.78;5015873;28;20451;-55
2023/03/30 09:45:29;;;;;;;4.80;1.50;;;;;;;16.15;93.97;99598.41;5015520;28;20555;-55
2023/03/30 09:48:07;;;;;;;1.30;0.83;;;;;;;16.22;92.59;99594.41;5021239;28;20817;-55
2023/03/30 09:50:40;;;;;;;5.80;1.37;;;;;;;16.28;91.31;99596.69;5022756;28;20451;-54
2023/03/30 09:53:28;;;;;;;2.20;0.90;;;;;;;16.25;91.40;99602.25;5002121;28;20476;-55
2023/03/30 09:56:00;;;;;;;1.53;1.43;;;;;;;16.46;91.10;99607.22;5022515;28;20960;-55
2023/03/30 09:58:29;;;;;;;1.70;1.60;;;;;;;16.62;91.42;99618.69;5022354;28;20574;-54
2023/03/30 10:01:02;;;;;;;5.40;1.67;;;;;;;16.88;89.71;99619.72;5028237;28;20451;-55
2023/03/30 10:03:28;;;;;;;3.80;0.60;;;;;;;16.70;88.94;99611.03;5015604;28;20479;-55
2023/03/30 10:06:06;;;;;;;0.80;0.70;;;;;;;16.69;88.88;99609.31;5021308;28;20452;-55
2023/03/30 10:08:49;;;;;;;0.83;0.83;;;;;;;16.86;87.66;99606.41;5022603;28;20444;-55
2023/03/30 10:11:40;;;;;;;4.33;1.30;;;;;;;17.02;88.09;99603.56;5021025;28;20541;-55
2023/03/30 10:14:31;;;;;;;0.73;0.70;;;;;;;17.13;86.08;99610.91;5020633;28;20492;-55
2023/03/30 10:16:58;;;;;;;2.17;0.83;;;;;;;17.06;85.97;99610.44;5026187;28;20463;-55
2023/03/30 10:19:25;;;;;;;0.80;0.80;;;;;;;17.15;85.71;99622.41;5025338;28;20491;-55
2023/03/30 10:21:57;;;;;;;1.00;0.90;;;;;;;17.17;86.09;99624.03;5019801;28;20536;-55
2023/03/30 10:24:26;;;;;;;6.43;1.07;;;;;;;17.62;85.12;99613.84;5019780;28;20539;-55
2023/03/30 10:27:02;;;;;;;5.93;1.27;;;;;;;17.53;85.18;99617.13;5005933;28;20448;-55
2023/03/30 10:29:29;;;;;;;1.33;1.10;;;;;;;17.18;82.54;99620.38;5024726;28;20516;-55
2023/03/30 10:32:09;;;;;;;6.40;1.20;;;;;;;17.26;84.06;99616.31;5024109;28;20460;-54
2023/03/30 10:34:41;;;;;;;1.47;1.37;;;;;;;17.36;83.28;99609.38;5026085;28;20477;-55
2023/03/30 10:37:15;;;;;;;1.07;1.00;;;;;;;17.54;82.26;99620.69;5024151;28;20474;-55
2023/03/30 10:39:45;;;;;;;3.03;0.53;;;;;;;17.47;82.17;99622.94;5019033;28;20448;-55
2023/03/30 10:42:18;;;;;;;1.43;0.50;;;;;;;17.42;81.96;99619.72;5019426;28;20479;-55
2023/03/30 10:44:49;;;;;;;1.23;1.13;;;;;;;17.51;80.21;99627.13;5000767;28;21063;-55
2023/03/30 10:47:33;;;;;;;1.10;0.80;;;;;;;17.35;80.77;99624.63;5025794;28;20455;-55
2023/03/30 10:50:23;;;;;;;1.70;0.60;;;;;;;17.50;80.55;99629.94;5023619;28;21027;-55
2023/03/30 10:53:13;;;;;;;3.10;0.80;;;;;;;17.25;78.15;99636.06;5015062;28;20464;-55
2023/03/30 10:55:50;;;;;;;1.40;1.13;;;;;;;17.00;78.56;99645.78;5019002;28;20447;-54
2023/03/30 10:58:29;;;;;;;2.63;0.93;;;;;;;17.14;80.75;99629.63;5019945;28;20483;-55
2023/03/30 11:01:21;;;;;;;4.90;1.47;;;;;;;17.57;80.19;99617.81;5029784;28;20451;-55
2023/03/30 11:03:57;;;;;;;3.07;0.60;;;;;;;17.99;77.26;99609.50;5018796;28;20847;-55
2023/03/30 11:06:38;;;;;;;0.70;0.60;;;;;;;18.15;75.75;99624.56;5018841;28;20459;-55
2023/03/30 11:09:13;;;;;;;1.50;0.97;;;;;;;18.35;72.93;99622.16;5008400;28;20446;-55
2023/03/30 11:11:47;;;;;;;0.73;0.67;;;;;;;18.52;73.04;99629.03;5018487;28;20947;-55
2023/03/30 11:14:24;;;;;;;5.77;1.17;;;;;;;18.09;72.48;99611.53;5022501;28;20504;-54
2023/03/30 11:17:12;;;;;;;1.17;0.50;;;;;;;18.52;72.50;99609.34;5025315;28;20448;-52
2023/03/30 11:19:54;;;;;;;1.30;1.20;;;;;;;18.25;71.33;99606.81;5025161;28;20495;-52
2023/03/30 11:22:40;;;;;;;1.00;0.80;;;;;;;18.32;70.99;99616.13;5022265;28;20933;-52
2023/03/30 11:25:19;;;;;;;8.13;0.80;;;;;;;18.50;70.65;99608.56;5018417;28;20461;-52
2023/03/30 11:27:54;;;;;;;5.03;0.90;;;;;;;18.70;65.37;99612.56;5017995;28;20818;-52
2023/03/30 11:30:30;;;;;;;1.97;0.70;;;;;;;18.70;62.12;99602.66;5026690;28;20454;-53
2023/03/30 11:33:06;;;;;;;2.00;0.50;;;;;;;18.93;60.71;99612.59;5017831;28;20929;-53
2023/03/30 11:35:38;;;;;;;1.70;0.70;;;;;;;18.94;63.39;99616.16;5019955;28;20541;-52
2023/03/30 11:38:20;;;;;;;0.40;0.30;;;;;;;18.94;60.35;99610.75;5025097;28;20481;-53
2023/03/30 11:40:52;;;;;;;9.83;0.40;;;;;;;19.26;60.90;99612.88;5024728;28;20451;-52
2023/03/30 11:43:23;;;;;;;4.67;1.03;;;;;;;19.19;62.68;99599.88;5020472;28;20863;-52
2023/03/30 11:46:05;;;;;;;0.40;0.30;;;;;;;19.36;62.64;99597.75;5017964;28;21008;-52